Terminal Aerodrome Forecast
Issued by NWS

Home | Current Version | Previous Version | Text Only | Print | Product List | Glossary Off
Versions: 1 2 3 4 5 6 7 8 9 10 11 12 13 14 15 16 17 18 19 20

000
FTUS43 KBIS 221721
TAFMOT
TAF
KMOT 221721Z 2218/2318 18012G20KT P6SM FEW100
     FM222100 21011KT 6SM -TSRA SCT040CB
     FM230000 21007KT P6SM VCSH SCT060
     FM230600 23006KT P6SM SCT250=

USA.gov is the U.S. government's official web portal to all federal, state and local government web resources and services.